Aérodrome :
LOGIN :

S'inscrire | Disclaimer

   EN    FR    IT 

 










Légende :    VFR   VFR Marginal   IFR   IFR Intensif   IFR Très Intensif
Visi : 
Plafond : 
>= 8 km
>= 3000ft
5 à 8 km
1000 à 3000 ft
1500m à 5 km
500 à 1000 ft
800 à 1500m
200 à 500 ft
< 800m
< 200 ft
Symboles :   Orages  Brouillard  Fortes neiges  Fortes précipitations  Vent > 20 kt
SIGMETs :   Divers  Orages  Givrage  Turbulence  Onde Orograph.  Cendres Volcan.







- Altitude de l'aérodrome : 26 ft
- Code IATA : GLA
- Voir les cartes d'approche


EGPF - Glasgow

DERNIER METAR :
  • 192350Z AUTO 23019KT 210V290 9999 FEW030/// SCT039/// BKN047/// //////CB 10/06 Q1002

METARs EXPIRÉS :
  • 192320Z AUTO 23021KT 9999 -RA SCT032/// BKN039/// BKN045/// //////TCU 10/06 Q1001
  • 192250Z AUTO 23027G40KT 9999 SCT031/// BKN039/// //////TCU 10/06 Q1001
  • 192220Z AUTO 22022KT 9999 -RA SCT031/// BKN039/// BKN048/// //////TCU 10/07 Q1001
  • 192150Z AUTO 22027KT 9999 FEW039 SCT048 11/06 Q1001
  • 192120Z AUTO 22020KT 9999 BKN035 11/06 Q1001

TAF AMD TAF EGPF
Valide du 20 à 00h jusqu'au 21 à 00h UTC


200003Z 2000/2024 25022G32KT 9999 SCT040
PROB30
TEMPO 2000/2003 6000 SHRA
BECMG 2003/2006 22012KT
BECMG 2015/2018 VRB05KT
TEMPO 2019/2024 6000 RA BKN012
BECMG 2021/2024 29010KT
ATIS : +44 141 887 7449
Pas de NOTAMs connus pour ce terrain.
2 SIGMETs publiés pour la FIR Scottish (EGPX) :
 
Turbulence forte
EGPX SIGMET 14 VALID 192100/200100 EGRR
EGPX SCOTTISH FIR SEV TURB FCST SE OF LINE N5912 W01000 - N6100 W00232 SFC/FL060 STNR NC=
Onde orographique forte
EGPX SIGMET 13 VALID 192100/200100 EGRR
EGPX SCOTTISH FIR SEV MTW FCST WI N5500 W00530 - N5355 W00530 - N5546 W00718 - N5801 W00339 - N5805 W00103 - N5500 E00020 - N5500 W00530 FL030/250 STNR NC=



MET'MAP, la Météo Aéronautique d'un coup d'oeil ! - Copyright ORBIFLY Décembre 2007 - Disclaimer

ORBIFLY MET'MAP TEAM :

Programmation & Développement : Alexandra Zaïnal
Conception & Développement : Baudouin d'Aumeries
Co-Programmation & Développement : Marc-Olivier Méhu
Soutien technique & logistique : Manuel Goepfert

Contact : metmap@orbifly.com




SOURCES & CREDITS :

   NOAA